sensor_id;sensor_type;location;lat;lon;timestamp;P1;durP1;ratioP1;P2;durP2;ratioP2
11191;SDS011;5652;48.406;10.820;2023-11-19T00:01:04;3.67;;;2.60;;
11191;SDS011;5652;48.406;10.820;2023-11-19T00:03:31;2.80;;;2.43;;
11191;SDS011;5652;48.406;10.820;2023-11-19T00:06:00;3.17;;;2.50;;
11191;SDS011;5652;48.406;10.820;2023-11-19T00:08:30;3.10;;;2.47;;
11191;SDS011;5652;48.406;10.820;2023-11-19T00:10:57;3.30;;;2.80;;
11191;SDS011;5652;48.406;10.820;2023-11-19T00:13:26;3.90;;;2.60;;
11191;SDS011;5652;48.406;10.820;2023-11-19T00:15:53;3.25;;;2.83;;
11191;SDS011;5652;48.406;10.820;2023-11-19T00:18:21;3.60;;;3.00;;
11191;SDS011;5652;48.406;10.820;2023-11-19T00:20:48;3.22;;;2.92;;
11191;SDS011;5652;48.406;10.820;2023-11-19T00:23:15;3.47;;;2.90;;
11191;SDS011;5652;48.406;10.820;2023-11-19T00:25:44;3.22;;;2.78;;
11191;SDS011;5652;48.406;10.820;2023-11-19T00:28:12;3.40;;;3.10;;
11191;SDS011;5652;48.406;10.820;2023-11-19T00:30:40;3.42;;;2.80;;
11191;SDS011;5652;48.406;10.820;2023-11-19T00:33:07;3.22;;;2.75;;
11191;SDS011;5652;48.406;10.820;2023-11-19T00:35:34;3.80;;;3.10;;
11191;SDS011;5652;48.406;10.820;2023-11-19T00:38:02;3.63;;;2.78;;
11191;SDS011;5652;48.406;10.820;2023-11-19T00:40:29;3.03;;;2.75;;
11191;SDS011;5652;48.406;10.820;2023-11-19T00:42:58;3.30;;;2.85;;
11191;SDS011;5652;48.406;10.820;2023-11-19T00:45:25;3.20;;;2.60;;
11191;SDS011;5652;48.406;10.820;2023-11-19T00:47:52;4.47;;;2.80;;
11191;SDS011;5652;48.406;10.820;2023-11-19T00:50:19;3.10;;;2.80;;
11191;SDS011;5652;48.406;10.820;2023-11-19T00:52:47;3.60;;;2.53;;
11191;SDS011;5652;48.406;10.820;2023-11-19T00:55:15;0.70;;;0.70;;
11191;SDS011;5652;48.406;10.820;2023-11-19T00:57:42;0.60;;;0.60;;
11191;SDS011;5652;48.406;10.820;2023-11-19T01:00:11;0.70;;;0.70;;
11191;SDS011;5652;48.406;10.820;2023-11-19T01:02:43;0.70;;;0.70;;
11191;SDS011;5652;48.406;10.820;2023-11-19T01:05:10;3.95;;;1.85;;
11191;SDS011;5652;48.406;10.820;2023-11-19T01:07:39;1.07;;;1.00;;
11191;SDS011;5652;48.406;10.820;2023-11-19T01:10:07;0.60;;;0.60;;
11191;SDS011;5652;48.406;10.820;2023-11-19T01:12:34;0.73;;;0.73;;
11191;SDS011;5652;48.406;10.820;2023-11-19T01:15:03;0.52;;;0.52;;
11191;SDS011;5652;48.406;10.820;2023-11-19T01:17:31;2.03;;;1.00;;
11191;SDS011;5652;48.406;10.820;2023-11-19T01:19:58;0.82;;;0.82;;
11191;SDS011;5652;48.406;10.820;2023-11-19T01:22:25;0.65;;;0.65;;
11191;SDS011;5652;48.406;10.820;2023-11-19T01:24:52;0.70;;;0.70;;
11191;SDS011;5652;48.406;10.820;2023-11-19T01:27:19;0.70;;;0.70;;
11191;SDS011;5652;48.406;10.820;2023-11-19T01:29:46;0.70;;;0.70;;
11191;SDS011;5652;48.406;10.820;2023-11-19T01:32:13;0.63;;;0.63;;
11191;SDS011;5652;48.406;10.820;2023-11-19T01:34:42;0.50;;;0.50;;
11191;SDS011;5652;48.406;10.820;2023-11-19T01:37:09;0.65;;;0.65;;
11191;SDS011;5652;48.406;10.820;2023-11-19T01:39:37;0.55;;;0.55;;
11191;SDS011;5652;48.406;10.820;2023-11-19T01:42:05;0.60;;;0.60;;
11191;SDS011;5652;48.406;10.820;2023-11-19T01:44:32;1.00;;;1.00;;
11191;SDS011;5652;48.406;10.820;2023-11-19T01:46:59;0.68;;;0.68;;
11191;SDS011;5652;48.406;10.820;2023-11-19T01:49:26;0.70;;;0.70;;
11191;SDS011;5652;48.406;10.820;2023-11-19T01:51:57;0.60;;;0.60;;
11191;SDS011;5652;48.406;10.820;2023-11-19T01:54:25;0.60;;;0.60;;
11191;SDS011;5652;48.406;10.820;2023-11-19T01:56:53;0.80;;;0.80;;
11191;SDS011;5652;48.406;10.820;2023-11-19T01:59:21;0.50;;;0.50;;
11191;SDS011;5652;48.406;10.820;2023-11-19T02:01:51;0.60;;;0.60;;
11191;SDS011;5652;48.406;10.820;2023-11-19T02:04:19;0.50;;;0.50;;
11191;SDS011;5652;48.406;10.820;2023-11-19T02:06:46;0.80;;;0.80;;
11191;SDS011;5652;48.406;10.820;2023-11-19T02:09:15;0.60;;;0.60;;
11191;SDS011;5652;48.406;10.820;2023-11-19T02:11:44;0.70;;;0.70;;
11191;SDS011;5652;48.406;10.820;2023-11-19T02:14:14;0.60;;;0.60;;
11191;SDS011;5652;48.406;10.820;2023-11-19T02:16:41;1.00;;;0.90;;
11191;SDS011;5652;48.406;10.820;2023-11-19T02:19:08;0.60;;;0.60;;
11191;SDS011;5652;48.406;10.820;2023-11-19T02:21:36;0.90;;;0.90;;
11191;SDS011;5652;48.406;10.820;2023-11-19T02:24:03;0.77;;;0.70;;
11191;SDS011;5652;48.406;10.820;2023-11-19T02:26:36;0.63;;;0.63;;
11191;SDS011;5652;48.406;10.820;2023-11-19T02:29:07;0.75;;;0.65;;
11191;SDS011;5652;48.406;10.820;2023-11-19T02:31:34;0.50;;;0.50;;
11191;SDS011;5652;48.406;10.820;2023-11-19T02:34:01;0.50;;;0.50;;
11191;SDS011;5652;48.406;10.820;2023-11-19T02:36:28;0.98;;;0.98;;
11191;SDS011;5652;48.406;10.820;2023-11-19T02:38:57;0.70;;;0.70;;
11191;SDS011;5652;48.406;10.820;2023-11-19T02:41:24;0.57;;;0.57;;
11191;SDS011;5652;48.406;10.820;2023-11-19T02:43:52;0.70;;;0.70;;
11191;SDS011;5652;48.406;10.820;2023-11-19T02:46:20;0.70;;;0.70;;
11191;SDS011;5652;48.406;10.820;2023-11-19T02:48:47;0.80;;;0.80;;
11191;SDS011;5652;48.406;10.820;2023-11-19T02:51:14;0.68;;;0.68;;
11191;SDS011;5652;48.406;10.820;2023-11-19T02:53:43;0.50;;;0.50;;
11191;SDS011;5652;48.406;10.820;2023-11-19T02:56:13;0.65;;;0.65;;
11191;SDS011;5652;48.406;10.820;2023-11-19T02:58:45;0.80;;;0.80;;
11191;SDS011;5652;48.406;10.820;2023-11-19T03:01:14;0.50;;;0.50;;
11191;SDS011;5652;48.406;10.820;2023-11-19T03:03:55;0.80;;;0.68;;
11191;SDS011;5652;48.406;10.820;2023-11-19T03:06:23;0.80;;;0.80;;
11191;SDS011;5652;48.406;10.820;2023-11-19T03:08:50;0.60;;;0.60;;
11191;SDS011;5652;48.406;10.820;2023-11-19T03:11:17;0.90;;;0.90;;
11191;SDS011;5652;48.406;10.820;2023-11-19T03:13:45;0.70;;;0.70;;
11191;SDS011;5652;48.406;10.820;2023-11-19T03:16:12;0.87;;;0.87;;
11191;SDS011;5652;48.406;10.820;2023-11-19T03:18:39;0.60;;;0.60;;
11191;SDS011;5652;48.406;10.820;2023-11-19T03:21:08;0.57;;;0.57;;
11191;SDS011;5652;48.406;10.820;2023-11-19T03:23:36;0.60;;;0.60;;
11191;SDS011;5652;48.406;10.820;2023-11-19T03:26:05;0.70;;;0.70;;
11191;SDS011;5652;48.406;10.820;2023-11-19T03:28:33;0.57;;;0.57;;
11191;SDS011;5652;48.406;10.820;2023-11-19T03:31:00;0.80;;;0.80;;
11191;SDS011;5652;48.406;10.820;2023-11-19T03:33:27;1.10;;;0.65;;
11191;SDS011;5652;48.406;10.820;2023-11-19T03:35:54;1.00;;;0.60;;
11191;SDS011;5652;48.406;10.820;2023-11-19T03:38:23;0.70;;;0.70;;
11191;SDS011;5652;48.406;10.820;2023-11-19T03:40:50;0.60;;;0.60;;
11191;SDS011;5652;48.406;10.820;2023-11-19T03:43:17;0.68;;;0.68;;
11191;SDS011;5652;48.406;10.820;2023-11-19T03:45:44;0.60;;;0.60;;
11191;SDS011;5652;48.406;10.820;2023-11-19T03:48:12;0.80;;;0.80;;
11191;SDS011;5652;48.406;10.820;2023-11-19T03:50:41;0.45;;;0.45;;
11191;SDS011;5652;48.406;10.820;2023-11-19T03:53:08;0.70;;;0.65;;
11191;SDS011;5652;48.406;10.820;2023-11-19T03:55:36;0.70;;;0.70;;
11191;SDS011;5652;48.406;10.820;2023-11-19T03:58:03;0.50;;;0.50;;
11191;SDS011;5652;48.406;10.820;2023-11-19T04:00:29;0.40;;;0.40;;
11191;SDS011;5652;48.406;10.820;2023-11-19T04:02:56;0.57;;;0.57;;
11191;SDS011;5652;48.406;10.820;2023-11-19T04:05:24;0.45;;;0.45;;
11191;SDS011;5652;48.406;10.820;2023-11-19T04:07:51;0.50;;;0.50;;
11191;SDS011;5652;48.406;10.820;2023-11-19T04:10:18;0.40;;;0.40;;
11191;SDS011;5652;48.406;10.820;2023-11-19T04:12:48;0.70;;;0.57;;
11191;SDS011;5652;48.406;10.820;2023-11-19T04:15:16;0.50;;;0.50;;
11191;SDS011;5652;48.406;10.820;2023-11-19T04:17:43;0.50;;;0.50;;
11191;SDS011;5652;48.406;10.820;2023-11-19T04:20:10;0.40;;;0.40;;
11191;SDS011;5652;48.406;10.820;2023-11-19T04:22:38;0.40;;;0.40;;
11191;SDS011;5652;48.406;10.820;2023-11-19T04:25:06;0.40;;;0.40;;
11191;SDS011;5652;48.406;10.820;2023-11-19T04:27:33;0.57;;;0.55;;
11191;SDS011;5652;48.406;10.820;2023-11-19T04:30:02;1.20;;;0.60;;
11191;SDS011;5652;48.406;10.820;2023-11-19T04:32:30;0.50;;;0.50;;
11191;SDS011;5652;48.406;10.820;2023-11-19T04:34:57;0.50;;;0.50;;
11191;SDS011;5652;48.406;10.820;2023-11-19T04:37:24;0.70;;;0.70;;
11191;SDS011;5652;48.406;10.820;2023-11-19T04:39:51;0.60;;;0.60;;
11191;SDS011;5652;48.406;10.820;2023-11-19T04:42:18;0.40;;;0.40;;
11191;SDS011;5652;48.406;10.820;2023-11-19T04:44:45;0.60;;;0.60;;
11191;SDS011;5652;48.406;10.820;2023-11-19T04:47:14;0.63;;;0.63;;
11191;SDS011;5652;48.406;10.820;2023-11-19T04:49:41;0.47;;;0.40;;
11191;SDS011;5652;48.406;10.820;2023-11-19T04:52:08;0.60;;;0.60;;
11191;SDS011;5652;48.406;10.820;2023-11-19T04:54:40;0.60;;;0.60;;
11191;SDS011;5652;48.406;10.820;2023-11-19T04:57:08;0.50;;;0.50;;
11191;SDS011;5652;48.406;10.820;2023-11-19T04:59:36;0.50;;;0.50;;
11191;SDS011;5652;48.406;10.820;2023-11-19T05:02:03;0.45;;;0.45;;
11191;SDS011;5652;48.406;10.820;2023-11-19T05:04:31;0.50;;;0.50;;
11191;SDS011;5652;48.406;10.820;2023-11-19T05:06:58;0.50;;;0.50;;
11191;SDS011;5652;48.406;10.820;2023-11-19T05:09:26;0.70;;;0.70;;
11191;SDS011;5652;48.406;10.820;2023-11-19T05:11:53;0.50;;;0.50;;
11191;SDS011;5652;48.406;10.820;2023-11-19T05:14:20;0.50;;;0.50;;
11191;SDS011;5652;48.406;10.820;2023-11-19T05:16:49;1.13;;;1.02;;
11191;SDS011;5652;48.406;10.820;2023-11-19T05:19:15;0.50;;;0.50;;
11191;SDS011;5652;48.406;10.820;2023-11-19T05:21:44;0.60;;;0.60;;
11191;SDS011;5652;48.406;10.820;2023-11-19T05:24:11;0.60;;;0.60;;
11191;SDS011;5652;48.406;10.820;2023-11-19T05:26:38;0.50;;;0.50;;
11191;SDS011;5652;48.406;10.820;2023-11-19T05:29:05;0.52;;;0.52;;
11191;SDS011;5652;48.406;10.820;2023-11-19T05:31:32;0.40;;;0.40;;
11191;SDS011;5652;48.406;10.820;2023-11-19T05:33:59;0.77;;;0.70;;
11191;SDS011;5652;48.406;10.820;2023-11-19T05:36:26;0.50;;;0.50;;
11191;SDS011;5652;48.406;10.820;2023-11-19T05:38:55;0.40;;;0.40;;
11191;SDS011;5652;48.406;10.820;2023-11-19T05:41:22;0.50;;;0.50;;
11191;SDS011;5652;48.406;10.820;2023-11-19T05:43:49;0.40;;;0.40;;
11191;SDS011;5652;48.406;10.820;2023-11-19T05:46:16;0.60;;;0.60;;
11191;SDS011;5652;48.406;10.820;2023-11-19T05:48:43;0.60;;;0.60;;
11191;SDS011;5652;48.406;10.820;2023-11-19T05:51:11;0.73;;;0.70;;
11191;SDS011;5652;48.406;10.820;2023-11-19T05:53:40;0.70;;;0.70;;
11191;SDS011;5652;48.406;10.820;2023-11-19T05:56:08;0.90;;;0.90;;
11191;SDS011;5652;48.406;10.820;2023-11-19T05:58:35;0.83;;;0.83;;
11191;SDS011;5652;48.406;10.820;2023-11-19T06:01:04;0.70;;;0.70;;
11191;SDS011;5652;48.406;10.820;2023-11-19T06:03:32;0.75;;;0.70;;
11191;SDS011;5652;48.406;10.820;2023-11-19T06:05:59;1.00;;;0.70;;
11191;SDS011;5652;48.406;10.820;2023-11-19T06:08:26;1.10;;;1.00;;
11191;SDS011;5652;48.406;10.820;2023-11-19T06:10:54;0.60;;;0.60;;
11191;SDS011;5652;48.406;10.820;2023-11-19T06:13:23;0.80;;;0.80;;
11191;SDS011;5652;48.406;10.820;2023-11-19T06:15:50;0.70;;;0.70;;
11191;SDS011;5652;48.406;10.820;2023-11-19T06:18:17;2.20;;;1.05;;
11191;SDS011;5652;48.406;10.820;2023-11-19T06:20:46;0.90;;;0.90;;
11191;SDS011;5652;48.406;10.820;2023-11-19T06:23:13;1.65;;;0.60;;
11191;SDS011;5652;48.406;10.820;2023-11-19T06:25:40;0.90;;;0.90;;
11191;SDS011;5652;48.406;10.820;2023-11-19T06:28:07;0.50;;;0.50;;
11191;SDS011;5652;48.406;10.820;2023-11-19T06:30:36;1.20;;;1.00;;
11191;SDS011;5652;48.406;10.820;2023-11-19T06:33:03;0.50;;;0.50;;
11191;SDS011;5652;48.406;10.820;2023-11-19T06:35:30;0.50;;;0.50;;
11191;SDS011;5652;48.406;10.820;2023-11-19T06:38:01;0.52;;;0.52;;
11191;SDS011;5652;48.406;10.820;2023-11-19T06:40:29;0.60;;;0.60;;
11191;SDS011;5652;48.406;10.820;2023-11-19T06:42:56;0.82;;;0.80;;
11191;SDS011;5652;48.406;10.820;2023-11-19T06:45:23;0.90;;;0.70;;
11191;SDS011;5652;48.406;10.820;2023-11-19T06:47:52;0.82;;;0.82;;
11191;SDS011;5652;48.406;10.820;2023-11-19T06:50:19;0.60;;;0.60;;
11191;SDS011;5652;48.406;10.820;2023-11-19T06:52:46;0.50;;;0.50;;
11191;SDS011;5652;48.406;10.820;2023-11-19T06:55:13;0.45;;;0.45;;
11191;SDS011;5652;48.406;10.820;2023-11-19T06:57:40;0.90;;;0.90;;
11191;SDS011;5652;48.406;10.820;2023-11-19T07:00:08;0.70;;;0.70;;
11191;SDS011;5652;48.406;10.820;2023-11-19T07:02:36;0.50;;;0.50;;
11191;SDS011;5652;48.406;10.820;2023-11-19T07:05:06;2.70;;;2.50;;
11191;SDS011;5652;48.406;10.820;2023-11-19T07:07:33;2.70;;;2.38;;
11191;SDS011;5652;48.406;10.820;2023-11-19T07:10:00;2.72;;;2.50;;
11191;SDS011;5652;48.406;10.820;2023-11-19T07:12:29;2.83;;;2.40;;
11191;SDS011;5652;48.406;10.820;2023-11-19T07:14:56;2.92;;;2.50;;
11191;SDS011;5652;48.406;10.820;2023-11-19T07:17:23;2.73;;;2.30;;
11191;SDS011;5652;48.406;10.820;2023-11-19T07:19:50;2.40;;;2.20;;
11191;SDS011;5652;48.406;10.820;2023-11-19T07:22:19;2.83;;;2.10;;
11191;SDS011;5652;48.406;10.820;2023-11-19T07:24:46;2.70;;;2.22;;
11191;SDS011;5652;48.406;10.820;2023-11-19T07:27:13;2.80;;;2.23;;
11191;SDS011;5652;48.406;10.820;2023-11-19T07:29:40;2.10;;;1.90;;
11191;SDS011;5652;48.406;10.820;2023-11-19T07:32:09;2.25;;;2.00;;
11191;SDS011;5652;48.406;10.820;2023-11-19T07:34:38;2.53;;;2.13;;
11191;SDS011;5652;48.406;10.820;2023-11-19T07:37:06;2.35;;;1.90;;
11191;SDS011;5652;48.406;10.820;2023-11-19T07:39:34;2.20;;;1.93;;
11191;SDS011;5652;48.406;10.820;2023-11-19T07:42:03;2.40;;;1.70;;
11191;SDS011;5652;48.406;10.820;2023-11-19T07:44:31;2.10;;;1.90;;
11191;SDS011;5652;48.406;10.820;2023-11-19T07:46:58;2.35;;;1.95;;
11191;SDS011;5652;48.406;10.820;2023-11-19T07:49:26;1.90;;;1.70;;
11191;SDS011;5652;48.406;10.820;2023-11-19T07:51:53;2.05;;;1.70;;
11191;SDS011;5652;48.406;10.820;2023-11-19T07:54:20;1.88;;;1.65;;
11191;SDS011;5652;48.406;10.820;2023-11-19T07:56:49;1.98;;;1.67;;
11191;SDS011;5652;48.406;10.820;2023-11-19T07:59:16;3.00;;;1.60;;
11191;SDS011;5652;48.406;10.820;2023-11-19T08:01:43;2.40;;;1.60;;
11191;SDS011;5652;48.406;10.820;2023-11-19T08:04:10;1.60;;;1.50;;
11191;SDS011;5652;48.406;10.820;2023-11-19T08:06:37;1.60;;;1.50;;
11191;SDS011;5652;48.406;10.820;2023-11-19T08:09:04;1.80;;;1.40;;
11191;SDS011;5652;48.406;10.820;2023-11-19T08:11:36;1.73;;;1.40;;
11191;SDS011;5652;48.406;10.820;2023-11-19T08:14:06;2.20;;;1.50;;
11191;SDS011;5652;48.406;10.820;2023-11-19T08:16:33;2.10;;;1.60;;
11191;SDS011;5652;48.406;10.820;2023-11-19T08:19:01;1.65;;;1.45;;
11191;SDS011;5652;48.406;10.820;2023-11-19T08:21:28;1.67;;;1.52;;
11191;SDS011;5652;48.406;10.820;2023-11-19T08:23:55;1.38;;;1.20;;
11191;SDS011;5652;48.406;10.820;2023-11-19T08:26:23;1.40;;;1.25;;
11191;SDS011;5652;48.406;10.820;2023-11-19T08:28:50;1.60;;;1.38;;
11191;SDS011;5652;48.406;10.820;2023-11-19T08:31:19;1.23;;;1.13;;
11191;SDS011;5652;48.406;10.820;2023-11-19T08:33:46;1.33;;;1.20;;
11191;SDS011;5652;48.406;10.820;2023-11-19T08:36:16;1.30;;;1.20;;
11191;SDS011;5652;48.406;10.820;2023-11-19T08:38:43;1.70;;;1.20;;
11191;SDS011;5652;48.406;10.820;2023-11-19T08:41:11;2.15;;;1.40;;
11191;SDS011;5652;48.406;10.820;2023-11-19T08:43:38;1.30;;;1.20;;
11191;SDS011;5652;48.406;10.820;2023-11-19T08:46:09;1.40;;;1.30;;
11191;SDS011;5652;48.406;10.820;2023-11-19T08:48:37;1.40;;;1.30;;
11191;SDS011;5652;48.406;10.820;2023-11-19T08:51:05;1.55;;;1.20;;
11191;SDS011;5652;48.406;10.820;2023-11-19T08:53:32;1.83;;;1.40;;
11191;SDS011;5652;48.406;10.820;2023-11-19T08:55:59;1.38;;;1.25;;
11191;SDS011;5652;48.406;10.820;2023-11-19T08:58:27;2.33;;;1.20;;
11191;SDS011;5652;48.406;10.820;2023-11-19T09:00:55;1.23;;;1.13;;
11191;SDS011;5652;48.406;10.820;2023-11-19T09:03:22;1.40;;;1.30;;
11191;SDS011;5652;48.406;10.820;2023-11-19T09:05:52;1.40;;;1.30;;
11191;SDS011;5652;48.406;10.820;2023-11-19T09:08:20;1.30;;;1.20;;
11191;SDS011;5652;48.406;10.820;2023-11-19T09:10:47;1.30;;;1.20;;
11191;SDS011;5652;48.406;10.820;2023-11-19T09:13:14;1.65;;;1.30;;
11191;SDS011;5652;48.406;10.820;2023-11-19T09:15:41;1.70;;;1.30;;
11191;SDS011;5652;48.406;10.820;2023-11-19T09:18:09;1.63;;;1.47;;
11191;SDS011;5652;48.406;10.820;2023-11-19T09:20:36;1.70;;;1.30;;
11191;SDS011;5652;48.406;10.820;2023-11-19T09:23:05;2.05;;;1.60;;
11191;SDS011;5652;48.406;10.820;2023-11-19T09:25:34;1.35;;;1.25;;
11191;SDS011;5652;48.406;10.820;2023-11-19T09:28:01;1.60;;;1.40;;
11191;SDS011;5652;48.406;10.820;2023-11-19T09:30:28;1.75;;;1.40;;
11191;SDS011;5652;48.406;10.820;2023-11-19T09:32:55;1.42;;;1.30;;
11191;SDS011;5652;48.406;10.820;2023-11-19T09:35:22;1.58;;;1.38;;
11191;SDS011;5652;48.406;10.820;2023-11-19T09:37:50;1.60;;;1.50;;
11191;SDS011;5652;48.406;10.820;2023-11-19T09:40:18;1.60;;;1.20;;
11191;SDS011;5652;48.406;10.820;2023-11-19T09:42:45;1.35;;;1.15;;
11191;SDS011;5652;48.406;10.820;2023-11-19T09:45:13;1.05;;;0.95;;
11191;SDS011;5652;48.406;10.820;2023-11-19T09:47:42;1.10;;;1.00;;
11191;SDS011;5652;48.406;10.820;2023-11-19T09:50:10;1.10;;;1.00;;
11191;SDS011;5652;48.406;10.820;2023-11-19T09:52:50;1.00;;;0.90;;
11191;SDS011;5652;48.406;10.820;2023-11-19T09:55:18;1.20;;;0.90;;
11191;SDS011;5652;48.406;10.820;2023-11-19T09:57:45;0.88;;;0.82;;
11191;SDS011;5652;48.406;10.820;2023-11-19T10:00:14;0.80;;;0.80;;
11191;SDS011;5652;48.406;10.820;2023-11-19T10:02:43;1.10;;;1.00;;
11191;SDS011;5652;48.406;10.820;2023-11-19T10:05:11;1.13;;;1.02;;
11191;SDS011;5652;48.406;10.820;2023-11-19T10:07:39;1.10;;;0.90;;
11191;SDS011;5652;48.406;10.820;2023-11-19T10:10:08;1.25;;;1.10;;
11191;SDS011;5652;48.406;10.820;2023-11-19T10:12:40;1.00;;;0.90;;
11191;SDS011;5652;48.406;10.820;2023-11-19T10:15:07;1.33;;;1.10;;
11191;SDS011;5652;48.406;10.820;2023-11-19T10:17:38;1.20;;;1.10;;
11191;SDS011;5652;48.406;10.820;2023-11-19T10:20:06;1.90;;;0.90;;
11191;SDS011;5652;48.406;10.820;2023-11-19T10:22:36;0.82;;;0.82;;
11191;SDS011;5652;48.406;10.820;2023-11-19T10:25:04;2.30;;;0.90;;
11191;SDS011;5652;48.406;10.820;2023-11-19T10:27:32;1.00;;;0.90;;
11191;SDS011;5652;48.406;10.820;2023-11-19T10:30:02;1.00;;;0.90;;
11191;SDS011;5652;48.406;10.820;2023-11-19T10:32:30;1.03;;;0.93;;
11191;SDS011;5652;48.406;10.820;2023-11-19T10:35:04;0.98;;;0.90;;
11191;SDS011;5652;48.406;10.820;2023-11-19T10:37:32;0.90;;;0.90;;
11191;SDS011;5652;48.406;10.820;2023-11-19T10:40:02;1.17;;;0.90;;
11191;SDS011;5652;48.406;10.820;2023-11-19T10:42:30;0.90;;;0.90;;
11191;SDS011;5652;48.406;10.820;2023-11-19T10:44:57;1.10;;;0.93;;
11191;SDS011;5652;48.406;10.820;2023-11-19T10:47:26;1.00;;;1.00;;
11191;SDS011;5652;48.406;10.820;2023-11-19T10:49:55;0.80;;;0.80;;
11191;SDS011;5652;48.406;10.820;2023-11-19T10:52:23;0.90;;;0.90;;
11191;SDS011;5652;48.406;10.820;2023-11-19T10:54:52;1.23;;;0.90;;
11191;SDS011;5652;48.406;10.820;2023-11-19T10:57:22;1.50;;;0.88;;
11191;SDS011;5652;48.406;10.820;2023-11-19T10:59:53;0.98;;;0.88;;
11191;SDS011;5652;48.406;10.820;2023-11-19T11:02:23;0.90;;;0.90;;
11191;SDS011;5652;48.406;10.820;2023-11-19T11:04:52;1.90;;;0.95;;
11191;SDS011;5652;48.406;10.820;2023-11-19T11:07:21;1.10;;;1.00;;
11191;SDS011;5652;48.406;10.820;2023-11-19T11:09:51;0.90;;;0.90;;
11191;SDS011;5652;48.406;10.820;2023-11-19T11:12:18;0.83;;;0.83;;
11191;SDS011;5652;48.406;10.820;2023-11-19T11:14:49;1.00;;;0.90;;
11191;SDS011;5652;48.406;10.820;2023-11-19T11:17:18;1.13;;;0.90;;
11191;SDS011;5652;48.406;10.820;2023-11-19T11:19:48;0.90;;;0.90;;
11191;SDS011;5652;48.406;10.820;2023-11-19T11:22:17;1.60;;;0.95;;
11191;SDS011;5652;48.406;10.820;2023-11-19T11:24:50;0.85;;;0.85;;
11191;SDS011;5652;48.406;10.820;2023-11-19T11:27:30;0.97;;;0.90;;
11191;SDS011;5652;48.406;10.820;2023-11-19T11:30:01;1.17;;;0.83;;
11191;SDS011;5652;48.406;10.820;2023-11-19T11:32:31;0.90;;;0.90;;
11191;SDS011;5652;48.406;10.820;2023-11-19T11:35:08;1.20;;;0.93;;
11191;SDS011;5652;48.406;10.820;2023-11-19T11:37:43;0.70;;;0.70;;
11191;SDS011;5652;48.406;10.820;2023-11-19T11:40:13;0.82;;;0.80;;
11191;SDS011;5652;48.406;10.820;2023-11-19T11:42:41;0.75;;;0.75;;
11191;SDS011;5652;48.406;10.820;2023-11-19T11:45:09;0.90;;;0.90;;
11191;SDS011;5652;48.406;10.820;2023-11-19T11:50:21;1.17;;;0.80;;
11191;SDS011;5652;48.406;10.820;2023-11-19T11:55:51;0.70;;;0.70;;
11191;SDS011;5652;48.406;10.820;2023-11-19T11:58:20;0.88;;;0.82;;
11191;SDS011;5652;48.406;10.820;2023-11-19T12:00:47;1.40;;;0.90;;
11191;SDS011;5652;48.406;10.820;2023-11-19T12:03:16;2.80;;;0.88;;
11191;SDS011;5652;48.406;10.820;2023-11-19T12:05:46;0.70;;;0.70;;
11191;SDS011;5652;48.406;10.820;2023-11-19T12:08:14;0.90;;;0.80;;
11191;SDS011;5652;48.406;10.820;2023-11-19T12:10:44;1.10;;;1.00;;
11191;SDS011;5652;48.406;10.820;2023-11-19T12:13:13;0.80;;;0.80;;
11191;SDS011;5652;48.406;10.820;2023-11-19T12:18:22;1.02;;;0.90;;
11191;SDS011;5652;48.406;10.820;2023-11-19T12:20:50;0.70;;;0.70;;
11191;SDS011;5652;48.406;10.820;2023-11-19T12:23:17;0.77;;;0.77;;
11191;SDS011;5652;48.406;10.820;2023-11-19T12:25:46;0.60;;;0.60;;
11191;SDS011;5652;48.406;10.820;2023-11-19T12:28:14;1.20;;;0.90;;
11191;SDS011;5652;48.406;10.820;2023-11-19T12:30:42;0.80;;;0.80;;
11191;SDS011;5652;48.406;10.820;2023-11-19T12:33:10;0.80;;;0.80;;
11191;SDS011;5652;48.406;10.820;2023-11-19T12:35:38;0.77;;;0.70;;
11191;SDS011;5652;48.406;10.820;2023-11-19T12:38:05;0.80;;;0.80;;
11191;SDS011;5652;48.406;10.820;2023-11-19T12:40:33;0.88;;;0.75;;
11191;SDS011;5652;48.406;10.820;2023-11-19T12:43:01;0.80;;;0.80;;
11191;SDS011;5652;48.406;10.820;2023-11-19T12:45:34;0.98;;;0.80;;
11191;SDS011;5652;48.406;10.820;2023-11-19T12:48:05;0.98;;;0.90;;
11191;SDS011;5652;48.406;10.820;2023-11-19T12:53:14;0.60;;;0.60;;
11191;SDS011;5652;48.406;10.820;2023-11-19T12:55:41;0.68;;;0.68;;
11191;SDS011;5652;48.406;10.820;2023-11-19T12:58:09;1.17;;;0.73;;
11191;SDS011;5652;48.406;10.820;2023-11-19T13:00:37;0.83;;;0.83;;
11191;SDS011;5652;48.406;10.820;2023-11-19T13:03:04;0.80;;;0.80;;
11191;SDS011;5652;48.406;10.820;2023-11-19T13:05:32;0.80;;;0.80;;
11191;SDS011;5652;48.406;10.820;2023-11-19T13:08:00;0.85;;;0.82;;
11191;SDS011;5652;48.406;10.820;2023-11-19T13:10:27;0.95;;;0.90;;
11191;SDS011;5652;48.406;10.820;2023-11-19T13:13:02;0.80;;;0.80;;
11191;SDS011;5652;48.406;10.820;2023-11-19T13:15:30;0.80;;;0.80;;
11191;SDS011;5652;48.406;10.820;2023-11-19T13:17:58;1.73;;;0.82;;
11191;SDS011;5652;48.406;10.820;2023-11-19T13:20:25;1.77;;;0.80;;
11191;SDS011;5652;48.406;10.820;2023-11-19T13:22:56;0.80;;;0.80;;
11191;SDS011;5652;48.406;10.820;2023-11-19T13:25:23;0.90;;;0.90;;
11191;SDS011;5652;48.406;10.820;2023-11-19T13:27:50;1.38;;;0.90;;
11191;SDS011;5652;48.406;10.820;2023-11-19T13:30:18;1.40;;;1.00;;
11191;SDS011;5652;48.406;10.820;2023-11-19T13:32:48;1.05;;;0.90;;
11191;SDS011;5652;48.406;10.820;2023-11-19T13:35:15;2.20;;;1.00;;
11191;SDS011;5652;48.406;10.820;2023-11-19T13:37:43;1.00;;;0.90;;
11191;SDS011;5652;48.406;10.820;2023-11-19T13:40:10;1.45;;;1.00;;
11191;SDS011;5652;48.406;10.820;2023-11-19T13:42:41;0.70;;;0.70;;
11191;SDS011;5652;48.406;10.820;2023-11-19T13:45:09;0.90;;;0.90;;
11191;SDS011;5652;48.406;10.820;2023-11-19T13:47:39;0.95;;;0.90;;
11191;SDS011;5652;48.406;10.820;2023-11-19T13:50:09;1.25;;;0.90;;
11191;SDS011;5652;48.406;10.820;2023-11-19T13:52:37;1.20;;;1.00;;
11191;SDS011;5652;48.406;10.820;2023-11-19T13:55:05;0.73;;;0.73;;
11191;SDS011;5652;48.406;10.820;2023-11-19T13:57:33;0.90;;;0.80;;
11191;SDS011;5652;48.406;10.820;2023-11-19T14:00:00;1.00;;;0.90;;
11191;SDS011;5652;48.406;10.820;2023-11-19T14:02:30;0.83;;;0.80;;
11191;SDS011;5652;48.406;10.820;2023-11-19T14:04:57;1.00;;;0.80;;
11191;SDS011;5652;48.406;10.820;2023-11-19T14:07:26;0.70;;;0.70;;
11191;SDS011;5652;48.406;10.820;2023-11-19T14:09:54;0.80;;;0.80;;
11191;SDS011;5652;48.406;10.820;2023-11-19T14:12:23;1.00;;;0.85;;
11191;SDS011;5652;48.406;10.820;2023-11-19T14:14:50;1.27;;;1.17;;
11191;SDS011;5652;48.406;10.820;2023-11-19T14:17:17;0.77;;;0.77;;
11191;SDS011;5652;48.406;10.820;2023-11-19T14:19:44;1.08;;;0.70;;
11191;SDS011;5652;48.406;10.820;2023-11-19T14:22:11;0.80;;;0.80;;
11191;SDS011;5652;48.406;10.820;2023-11-19T14:24:40;1.00;;;0.90;;
11191;SDS011;5652;48.406;10.820;2023-11-19T14:27:08;0.90;;;0.80;;
11191;SDS011;5652;48.406;10.820;2023-11-19T14:29:35;0.93;;;0.85;;
11191;SDS011;5652;48.406;10.820;2023-11-19T14:32:02;1.20;;;1.00;;
11191;SDS011;5652;48.406;10.820;2023-11-19T14:34:29;1.10;;;1.00;;
11191;SDS011;5652;48.406;10.820;2023-11-19T14:36:57;1.13;;;0.90;;
11191;SDS011;5652;48.406;10.820;2023-11-19T14:39:25;1.58;;;1.00;;
11191;SDS011;5652;48.406;10.820;2023-11-19T14:41:55;1.15;;;0.80;;
11191;SDS011;5652;48.406;10.820;2023-11-19T14:44:23;0.97;;;0.80;;
11191;SDS011;5652;48.406;10.820;2023-11-19T14:46:50;1.00;;;0.90;;
11191;SDS011;5652;48.406;10.820;2023-11-19T14:49:17;0.80;;;0.75;;
11191;SDS011;5652;48.406;10.820;2023-11-19T14:51:44;0.90;;;0.90;;
11191;SDS011;5652;48.406;10.820;2023-11-19T14:54:11;0.80;;;0.80;;
11191;SDS011;5652;48.406;10.820;2023-11-19T14:56:39;0.80;;;0.80;;
11191;SDS011;5652;48.406;10.820;2023-11-19T14:59:08;0.80;;;0.80;;
11191;SDS011;5652;48.406;10.820;2023-11-19T15:01:35;1.00;;;0.90;;
11191;SDS011;5652;48.406;10.820;2023-11-19T15:04:02;0.80;;;0.80;;